Bloomingburg, Ohio
Current Conditions -  °F | °C
As of 11:15 PM on Sunday 23 Nov 2014 (Local Time) from KUYF Reporting Station
Drizzle Drizzle  
Wind Chill: 52°   Ceiling: 700
Heat Index: 52°   Visibility: 7mi
Dew Point: 52°   Wind: 18mph
Humidity: 100%   Direction: 150°SSE
Pressure: 29.31"   Gusts: 29mph
Location:  39.61°N, 83.4°W
Report Text: KUYF 240415Z AUTO 15016G25KT 7SM -DZ BKN007 OVC022 11/11 A2931 RMK AO2
Loading
Personal Weather Stations






























Interactive Weather Map New forecast layout! Learn more

10-Day Weather Forecast

Advertisements
Track Severe Weather on mobile